Time;durP1;ratioP1;P1;durP2;ratioP2;P2;SDS_P1;SDS_P2;PMS_P1;PMS_P2;Temp;Humidity;BMP_temperature;BMP_pressure;BME280_temperature;BME280_humidity;BME280_pressure;Samples;Min_cycle;Max_cycle;Signal;HPM_P1;HPM_P2
2023/11/29 00:00:24;;;;;;;14.65;8.15;;;-0.40;99.90;;;;;;12559593;28;20048;-33
2023/11/29 00:06:26;;;;;;;13.15;9.60;;;-0.40;99.90;;;;;;12557844;28;20091;-33
2023/11/29 00:12:29;;;;;;;17.02;9.63;;;-0.40;99.90;;;;;;12557021;28;20107;-33
2023/11/29 00:18:30;;;;;;;15.88;9.85;;;-0.40;99.90;;;;;;12559779;28;20086;-33
2023/11/29 00:24:32;;;;;;;21.13;12.10;;;-0.50;99.90;;;;;;12557902;28;20056;-33
2023/11/29 00:30:34;;;;;;;17.02;10.88;;;-0.60;99.90;;;;;;12561341;28;20055;-33
2023/11/29 00:36:36;;;;;;;19.63;11.88;;;-0.60;99.90;;;;;;12560747;28;20055;-33
2023/11/29 00:42:38;;;;;;;15.90;12.40;;;-0.60;99.90;;;;;;12556857;28;20332;-33
2023/11/29 00:48:40;;;;;;;19.77;14.10;;;-0.60;99.90;;;;;;12561473;28;20132;-33
2023/11/29 00:54:42;;;;;;;19.08;11.98;;;-0.50;99.90;;;;;;12559478;28;20140;-33
2023/11/29 01:00:44;;;;;;;19.63;12.55;;;-0.60;99.90;;;;;;12555128;28;20069;-32
2023/11/29 01:06:46;;;;;;;16.20;12.40;;;-0.50;99.90;;;;;;12536129;28;20168;-33
2023/11/29 01:12:47;;;;;;;20.52;12.88;;;-0.50;99.90;;;;;;12563231;28;20527;-33
2023/11/29 01:18:49;;;;;;;18.52;12.90;;;-0.50;99.90;;;;;;12556615;28;20056;-33
2023/11/29 01:24:51;;;;;;;19.98;13.65;;;-0.50;99.90;;;;;;12562198;28;20068;-33
2023/11/29 01:30:53;;;;;;;19.23;12.80;;;-0.50;99.90;;;;;;12562600;28;20113;-33
2023/11/29 01:36:55;;;;;;;17.50;12.75;;;-0.50;99.90;;;;;;12564271;28;20044;-34
2023/11/29 01:42:57;;;;;;;17.23;12.07;;;-0.50;99.90;;;;;;12560494;28;20080;-33
2023/11/29 01:48:59;;;;;;;17.67;12.52;;;-0.40;99.90;;;;;;12538093;28;20089;-33
2023/11/29 01:55:02;;;;;;;15.50;11.98;;;-0.30;99.90;;;;;;12560810;28;20160;-33
2023/11/29 02:01:04;;;;;;;19.17;13.18;;;-0.20;99.90;;;;;;12559865;28;20665;-33
2023/11/29 02:07:06;;;;;;;19.55;13.68;;;-0.20;99.90;;;;;;12556783;28;20411;-33
2023/11/29 02:13:08;;;;;;;15.98;12.27;;;-0.20;99.90;;;;;;12531900;28;20555;-33
2023/11/29 02:19:10;;;;;;;20.08;12.63;;;-0.30;99.90;;;;;;12559042;28;20144;-34
2023/11/29 02:25:12;;;;;;;19.30;12.95;;;-0.20;99.90;;;;;;12549358;28;20052;-33
2023/11/29 02:31:14;;;;;;;21.23;13.70;;;-0.20;99.90;;;;;;12561530;28;20558;-34
2023/11/29 02:37:16;;;;;;;23.02;13.80;;;-0.20;99.90;;;;;;12563337;28;20045;-33
2023/11/29 02:43:17;;;;;;;18.73;13.05;;;-0.30;99.90;;;;;;12553065;28;20053;-33
2023/11/29 02:49:19;;;;;;;18.48;12.57;;;-0.20;99.90;;;;;;12557413;28;20508;-34
2023/11/29 02:55:22;;;;;;;21.90;13.52;;;-0.20;99.90;;;;;;12537139;28;20167;-35
2023/11/29 03:01:24;;;;;;;16.40;13.07;;;-0.10;99.90;;;;;;12562635;28;20135;-34
2023/11/29 03:07:26;;;;;;;20.75;13.13;;;-0.10;99.90;;;;;;12561501;28;20044;-34
2023/11/29 03:13:28;;;;;;;20.10;13.82;;;-0.10;99.90;;;;;;12548609;28;20052;-34
2023/11/29 03:19:30;;;;;;;21.13;13.43;;;-0.10;99.90;;;;;;12542521;28;20062;-33
2023/11/29 03:25:32;;;;;;;20.02;14.00;;;-0.10;99.90;;;;;;12555593;28;20121;-33
2023/11/29 03:31:34;;;;;;;18.17;12.25;;;0.00;99.90;;;;;;12554479;28;20139;-33
2023/11/29 03:37:35;;;;;;;18.35;12.40;;;-0.10;99.90;;;;;;12561996;28;20036;-33
2023/11/29 03:43:37;;;;;;;19.55;13.57;;;0.00;99.90;;;;;;12563458;28;20048;-34
2023/11/29 03:49:39;;;;;;;24.52;14.45;;;-0.10;99.90;;;;;;12558471;28;20052;-33
2023/11/29 03:55:41;;;;;;;20.60;14.43;;;0.00;99.90;;;;;;12564858;28;20493;-34
2023/11/29 04:01:43;;;;;;;103.95;97.88;;;0.10;99.90;;;;;;12569613;28;20135;-33
2023/11/29 04:07:44;;;;;;;105.30;99.05;;;0.10;99.90;;;;;;12568844;28;20139;-33
2023/11/29 04:13:46;;;;;;;110.63;104.13;;;0.10;99.90;;;;;;12568713;28;20079;-33
2023/11/29 04:19:48;;;;;;;118.10;111.07;;;0.20;99.90;;;;;;12567535;28;20052;-33
2023/11/29 04:25:50;;;;;;;98.38;92.55;;;0.30;99.90;;;;;;12564735;28;20048;-34
2023/11/29 04:31:52;;;;;;;95.85;89.55;;;0.20;99.90;;;;;;12531686;28;20164;-33
2023/11/29 04:37:53;;;;;;;92.75;86.45;;;0.20;99.90;;;;;;12557260;28;20040;-34
2023/11/29 04:43:55;;;;;;;106.18;99.47;;;0.20;99.90;;;;;;12560342;28;20144;-34
2023/11/29 04:49:57;;;;;;;110.95;103.93;;;0.30;99.90;;;;;;12557570;28;20056;-34
2023/11/29 04:55:59;;;;;;;100.57;94.43;;;0.20;99.90;;;;;;12560089;28;20556;-34
2023/11/29 05:02:01;;;;;;;94.53;88.53;;;0.20;99.90;;;;;;12534536;28;20052;-34
2023/11/29 05:08:03;;;;;;;94.15;88.05;;;0.20;99.90;;;;;;12551440;28;20105;-34
2023/11/29 05:14:05;;;;;;;87.88;81.97;;;0.20;99.90;;;;;;12548650;28;20040;-33
2023/11/29 05:20:09;;;;;;;86.03;80.32;;;0.20;99.90;;;;;;12558266;28;20116;-34
2023/11/29 05:26:11;;;;;;;88.43;82.53;;;0.20;99.90;;;;;;12557004;28;20397;-34
2023/11/29 05:32:12;;;;;;;83.20;77.75;;;0.20;99.90;;;;;;12558736;28;20052;-33
2023/11/29 05:38:14;;;;;;;78.05;73.18;;;0.30;99.90;;;;;;12555359;28;20055;-34
2023/11/29 05:44:16;;;;;;;81.35;76.10;;;0.30;99.90;;;;;;12555914;28;20917;-34
2023/11/29 05:50:18;;;;;;;91.03;85.38;;;0.30;99.90;;;;;;12549802;28;20389;-34
2023/11/29 05:56:21;;;;;;;130.52;123.22;;;0.40;99.90;;;;;;12545840;28;20052;-34
2023/11/29 06:02:23;;;;;;;119.32;112.25;;;0.40;99.90;;;;;;12558996;28;20064;-34
2023/11/29 06:08:25;;;;;;;116.32;109.78;;;0.40;99.90;;;;;;12562751;28;20048;-34
2023/11/29 06:14:27;;;;;;;118.75;111.50;;;0.40;99.90;;;;;;12552986;28;20087;-33
2023/11/29 06:20:29;;;;;;;118.18;110.82;;;0.50;99.90;;;;;;12555927;28;20049;-33
2023/11/29 06:26:32;;;;;;;121.30;114.28;;;0.50;99.90;;;;;;12544307;28;20147;-33
2023/11/29 06:32:36;;;;;;;112.50;105.72;;;0.40;99.90;;;;;;12534210;28;20546;-34
2023/11/29 06:38:38;;;;;;;114.93;107.97;;;0.50;99.90;;;;;;12525124;28;20075;-33
2023/11/29 06:44:40;;;;;;;106.45;100.05;;;0.50;99.90;;;;;;12516169;28;20052;-33
2023/11/29 06:50:42;;;;;;;112.55;105.70;;;0.50;99.90;;;;;;12557622;28;20135;-33
2023/11/29 06:56:45;;;;;;;119.05;112.45;;;0.60;99.90;;;;;;12500718;28;20144;-33
2023/11/29 07:02:47;;;;;;;119.05;112.13;;;0.60;99.90;;;;;;12555024;28;20049;-33
2023/11/29 07:08:49;;;;;;;111.53;104.95;;;0.60;99.90;;;;;;12534631;28;20048;-33
2023/11/29 07:14:51;;;;;;;109.07;102.57;;;0.60;99.90;;;;;;12554922;28;20044;-34
2023/11/29 07:34:52;;;;;;;130.10;122.60;;;0.70;99.90;;;;;;12561254;27;20422;-40
2023/11/29 07:40:53;;;;;;;115.82;109.00;;;0.70;99.90;;;;;;12604911;28;20056;-40
2023/11/29 07:46:55;;;;;;;103.93;97.30;;;0.70;99.90;;;;;;12596688;28;20044;-40
2023/11/29 07:52:57;;;;;;;95.82;89.78;;;0.80;99.90;;;;;;12571505;28;20453;-40
2023/11/29 07:58:59;;;;;;;83.07;77.45;;;0.80;99.90;;;;;;12582136;28;20063;-40
2023/11/29 08:05:01;;;;;;;64.55;59.55;;;0.90;99.90;;;;;;12592407;28;20044;-40
2023/11/29 08:11:04;;;;;;;61.55;56.28;;;0.90;99.90;;;;;;12588195;28;20049;-39
2023/11/29 08:17:06;;;;;;;54.85;49.85;;;0.90;99.90;;;;;;12583749;28;20352;-40
2023/11/29 08:23:08;;;;;;;46.20;42.15;;;1.00;99.90;;;;;;12588503;28;20083;-40
2023/11/29 08:29:09;;;;;;;46.20;41.80;;;0.90;99.90;;;;;;12569319;28;20740;-40
2023/11/29 08:35:11;;;;;;;45.75;41.55;;;1.00;99.90;;;;;;12361893;28;20054;-40
2023/11/29 08:41:13;;;;;;;49.95;45.28;;;1.00;99.90;;;;;;12350406;28;20518;-40
2023/11/29 08:47:15;;;;;;;51.83;46.97;;;1.10;99.90;;;;;;12356651;28;20258;-40
2023/11/29 08:53:18;;;;;;;53.92;49.03;;;1.00;99.90;;;;;;12358294;28;20177;-40
2023/11/29 08:59:28;;;;;;;53.03;48.42;;;1.00;99.90;;;;;;12348393;28;20380;-40
2023/11/29 09:05:30;;;;;;;49.53;45.47;;;1.00;99.90;;;;;;12333688;28;20392;-40
2023/11/29 09:11:32;;;;;;;47.40;43.45;;;1.10;99.90;;;;;;12344234;28;20091;-40
2023/11/29 09:17:34;;;;;;;53.40;48.60;;;1.20;99.90;;;;;;12353692;28;20046;-40
2023/11/29 09:23:37;;;;;;;53.15;48.60;;;1.10;99.90;;;;;;12337885;28;20518;-40
2023/11/29 09:29:41;;;;;;;57.75;52.55;;;1.10;99.90;;;;;;12344588;28;20101;-43
2023/11/29 09:35:47;;;;;;;56.67;52.47;;;1.20;99.90;;;;;;12354841;28;20054;-43
2023/11/29 09:41:48;;;;;;;59.53;54.63;;;1.20;99.90;;;;;;12356995;28;20046;-43
2023/11/29 09:47:51;;;;;;;49.78;45.38;;;1.20;99.90;;;;;;12354672;28;20073;-43
2023/11/29 09:53:53;;;;;;;50.20;46.03;;;1.40;99.90;;;;;;12350133;28;20532;-43
2023/11/29 09:59:55;;;;;;;51.08;46.78;;;1.40;99.90;;;;;;12347356;28;20530;-43
2023/11/29 10:05:57;;;;;;;39.72;36.45;;;1.40;99.90;;;;;;12348594;28;20112;-43
2023/11/29 10:11:59;;;;;;;38.53;35.05;;;1.50;99.90;;;;;;12354685;28;20125;-43
2023/11/29 10:18:02;;;;;;;27.83;25.15;;;1.50;99.90;;;;;;12332122;28;20062;-43
2023/11/29 10:24:05;;;;;;;27.27;24.77;;;1.70;99.90;;;;;;12353410;28;20052;-43
2023/11/29 10:30:08;;;;;;;26.45;23.98;;;1.80;99.90;;;;;;12354677;28;20054;-43
2023/11/29 10:36:10;;;;;;;24.25;22.25;;;1.80;99.90;;;;;;12361760;28;20050;-43
2023/11/29 10:42:13;;;;;;;16.42;14.82;;;1.80;99.90;;;;;;12351438;28;20478;-43
2023/11/29 10:48:32;;;;;;;18.17;16.02;;;1.90;99.90;;;;;;12372764;28;20046;-43
2023/11/29 10:54:40;;;;;;;16.57;15.07;;;1.90;99.90;;;;;;12373315;28;20050;-43
2023/11/29 11:00:46;;;;;;;12.68;11.48;;;1.80;99.90;;;;;;12347832;28;20070;-43
2023/11/29 11:06:49;;;;;;;11.38;10.27;;;1.70;99.90;;;;;;12354145;28;20085;-42
2023/11/29 11:12:52;;;;;;;17.17;15.57;;;1.60;99.90;;;;;;12352769;28;20054;-43
2023/11/29 11:18:58;;;;;;;18.85;17.25;;;1.50;99.90;;;;;;12345154;28;20140;-43
2023/11/29 11:25:23;;;;;;;19.73;18.13;;;1.40;99.90;;;;;;12342533;28;20050;-43
2023/11/29 11:31:28;;;;;;;21.42;19.90;;;1.40;99.90;;;;;;12344605;28;20046;-43
2023/11/29 11:37:30;;;;;;;32.33;30.02;;;1.30;99.90;;;;;;12352734;28;20380;-43
2023/11/29 11:43:32;;;;;;;37.53;35.13;;;1.30;99.90;;;;;;12362008;28;20052;-43
2023/11/29 11:49:34;;;;;;;50.50;47.25;;;1.30;99.90;;;;;;12337862;28;20115;-43
2023/11/29 11:55:39;;;;;;;44.17;41.40;;;1.30;99.90;;;;;;12347779;28;20051;-43
2023/11/29 12:01:42;;;;;;;38.25;35.80;;;1.10;99.90;;;;;;12351695;28;20055;-43
2023/11/29 12:07:45;;;;;;;27.75;25.75;;;1.00;99.90;;;;;;12341986;28;20070;-42
2023/11/29 12:13:47;;;;;;;18.13;16.33;;;0.90;99.90;;;;;;12352793;28;20111;-43
2023/11/29 12:19:51;;;;;;;11.82;10.55;;;0.90;99.90;;;;;;12352641;28;20137;-43
2023/11/29 12:25:56;;;;;;;9.97;8.03;;;0.90;99.90;;;;;;12346624;28;20066;-43
2023/11/29 12:31:57;;;;;;;13.32;10.95;;;0.90;99.90;;;;;;12372991;28;20203;-43
2023/11/29 12:38:00;;;;;;;8.25;6.20;;;1.00;99.90;;;;;;12359516;28;20100;-43
2023/11/29 12:44:03;;;;;;;9.95;5.57;;;1.10;99.90;;;;;;12365507;28;20047;-42
2023/11/29 12:50:06;;;;;;;6.57;4.38;;;1.00;99.90;;;;;;12334833;28;20050;-42
2023/11/29 12:56:08;;;;;;;5.60;3.60;;;0.90;99.90;;;;;;12351399;28;20050;-43
2023/11/29 13:02:10;;;;;;;5.40;3.78;;;0.90;99.90;;;;;;12351801;28;20089;-42
2023/11/29 13:08:11;;;;;;;5.07;3.38;;;0.90;99.90;;;;;;12345944;28;20557;-42
2023/11/29 13:14:13;;;;;;;6.85;3.47;;;1.00;99.90;;;;;;12360844;28;20140;-43
2023/11/29 13:20:15;;;;;;;4.57;3.30;;;0.90;99.90;;;;;;12335047;28;20137;-43
2023/11/29 13:26:17;;;;;;;7.50;3.63;;;0.90;99.90;;;;;;12352043;28;20201;-43
2023/11/29 13:32:19;;;;;;;6.35;3.13;;;0.90;99.90;;;;;;12359433;28;20503;-42
2023/11/29 13:38:21;;;;;;;4.80;3.70;;;0.90;99.90;;;;;;12362906;28;20146;-42
2023/11/29 13:44:26;;;;;;;5.55;3.85;;;0.80;99.90;;;;;;12362673;28;20054;-43
2023/11/29 13:50:29;;;;;;;6.75;4.25;;;0.90;99.90;;;;;;12342676;28;20142;-43
2023/11/29 13:56:31;;;;;;;7.93;4.03;;;0.90;99.90;;;;;;12346474;28;20074;-43
2023/11/29 14:02:33;;;;;;;5.57;3.70;;;0.90;99.90;;;;;;12347372;28;20096;-43
2023/11/29 14:08:39;;;;;;;5.93;3.70;;;0.90;99.90;;;;;;12343647;28;20042;-42
2023/11/29 14:14:41;;;;;;;4.70;3.88;;;1.00;99.90;;;;;;12365451;28;20475;-43
2023/11/29 14:20:43;;;;;;;7.68;3.80;;;0.70;99.90;;;;;;12359004;28;20058;-43
2023/11/29 14:26:45;;;;;;;5.10;3.80;;;0.70;99.90;;;;;;12350339;28;20061;-43
2023/11/29 14:32:47;;;;;;;5.65;3.40;;;0.60;99.90;;;;;;12356872;28;20511;-43
2023/11/29 14:38:50;;;;;;;5.22;3.33;;;0.60;99.90;;;;;;12359917;28;20512;-42
2023/11/29 14:44:53;;;;;;;4.80;3.10;;;0.60;99.90;;;;;;12355087;28;20480;-43
2023/11/29 14:50:56;;;;;;;7.75;3.65;;;0.60;99.90;;;;;;12337895;28;20060;-42
2023/11/29 14:56:58;;;;;;;5.68;3.22;;;0.60;99.90;;;;;;12353916;28;20078;-43
2023/11/29 15:02:59;;;;;;;4.45;3.20;;;0.70;99.90;;;;;;12350660;28;20051;-43
2023/11/29 15:09:02;;;;;;;3.88;2.97;;;0.70;99.90;;;;;;12347064;28;20046;-43
2023/11/29 15:15:05;;;;;;;5.18;3.20;;;0.60;99.90;;;;;;12350300;28;20057;-43
2023/11/29 15:21:07;;;;;;;5.43;3.10;;;0.60;99.90;;;;;;12346023;28;20097;-43
2023/11/29 15:27:09;;;;;;;6.43;3.13;;;0.70;99.90;;;;;;12693679;22;20052;-77
2023/11/29 15:33:11;;;;;;;4.45;2.60;;;0.60;99.90;;;;;;12589464;28;20500;-77
2023/11/29 15:39:13;;;;;;;6.30;2.92;;;0.60;99.90;;;;;;12596736;28;20075;-77
2023/11/29 15:45:15;;;;;;;5.35;3.58;;;0.50;99.90;;;;;;12638449;28;20048;-76
2023/11/29 15:51:17;;;;;;;5.50;3.95;;;0.40;99.90;;;;;;12616519;28;20056;-78
2023/11/29 15:57:20;;;;;;;5.53;4.10;;;0.20;99.90;;;;;;12625707;28;20100;-76
2023/11/29 16:03:22;;;;;;;6.03;4.28;;;0.10;99.90;;;;;;12649254;28;20040;-76
2023/11/29 16:09:24;;;;;;;7.47;4.45;;;0.10;99.90;;;;;;12639885;28;20472;-77
2023/11/29 16:15:26;;;;;;;7.65;4.20;;;0.10;99.90;;;;;;12618874;28;20070;-75
2023/11/29 16:21:28;;;;;;;5.05;4.43;;;0.20;99.90;;;;;;12607406;28;20055;-77
2023/11/29 16:27:35;;;;;;;6.65;5.50;;;0.10;99.90;;;;;;12624804;28;20039;-75
2023/11/29 16:33:37;;;;;;;10.75;5.80;;;0.10;99.90;;;;;;12632355;28;20478;-76
2023/11/29 16:39:41;;;;;;;7.38;6.20;;;0.10;99.90;;;;;;12626816;28;20524;-79
2023/11/29 16:45:43;;;;;;;7.25;6.13;;;0.00;99.90;;;;;;12621625;28;20053;-79
2023/11/29 16:51:45;;;;;;;8.15;6.75;;;0.00;99.90;;;;;;12594811;28;20679;-80
2023/11/29 16:57:47;;;;;;;9.45;6.95;;;0.00;99.90;;;;;;12612160;28;20079;-79
2023/11/29 17:03:49;;;;;;;8.77;6.03;;;0.00;99.90;;;;;;12606260;28;20048;-79
2023/11/29 17:09:56;;;;;;;9.50;5.93;;;0.00;99.90;;;;;;12600324;28;20052;-79
2023/11/29 17:15:57;;;;;;;8.23;5.75;;;0.10;99.90;;;;;;12593358;28;20797;-79
2023/11/29 17:21:59;;;;;;;13.73;6.18;;;0.10;99.90;;;;;;12596319;28;20139;-79
2023/11/29 17:28:01;;;;;;;12.52;6.53;;;0.10;99.90;;;;;;12604921;28;20051;-79
2023/11/29 17:34:03;;;;;;;6.70;5.68;;;0.10;99.90;;;;;;12608055;28;20055;-80
2023/11/29 17:40:07;;;;;;;8.15;5.85;;;0.20;99.90;;;;;;12593602;28;20135;-79
2023/11/29 17:46:09;;;;;;;6.33;5.10;;;0.20;99.90;;;;;;12613206;28;20490;-80
2023/11/29 17:52:15;;;;;;;7.32;5.82;;;0.30;99.90;;;;;;12583263;28;20052;-80
2023/11/29 17:58:16;;;;;;;7.63;6.45;;;0.30;99.90;;;;;;12593118;28;20118;-80
2023/11/29 18:04:18;;;;;;;8.43;5.82;;;0.30;99.90;;;;;;12575858;28;20048;-81
2023/11/29 18:10:21;;;;;;;7.20;5.35;;;0.20;99.90;;;;;;12503927;28;20116;-81
2023/11/29 18:16:26;;;;;;;6.25;5.65;;;0.30;99.90;;;;;;12618761;28;20074;-81
2023/11/29 18:22:29;;;;;;;10.10;6.30;;;0.30;99.90;;;;;;12600652;28;20044;-80
2023/11/29 18:28:31;;;;;;;10.00;6.70;;;0.30;99.90;;;;;;12613105;28;20108;-80
2023/11/29 18:34:33;;;;;;;8.45;7.50;;;0.30;99.90;;;;;;12591547;28;20060;-81
2023/11/29 18:40:35;;;;;;;8.98;8.10;;;0.40;99.90;;;;;;12599087;28;20079;-81
2023/11/29 18:46:37;;;;;;;10.45;9.65;;;0.60;99.90;;;;;;12599180;28;20052;-81
2023/11/29 18:52:39;;;;;;;11.20;10.20;;;0.70;99.90;;;;;;12614271;28;20229;-82
2023/11/29 18:58:41;;;;;;;10.50;9.65;;;0.60;99.90;;;;;;12607129;28;20090;-82
2023/11/29 19:04:44;;;;;;;7.57;7.05;;;0.40;99.90;;;;;;12593484;28;20988;-83
2023/11/29 19:10:47;;;;;;;8.68;8.07;;;0.30;99.90;;;;;;12590154;28;20052;-82
2023/11/29 19:16:49;;;;;;;11.00;10.20;;;0.40;99.90;;;;;;12623233;28;20062;-82
2023/11/29 19:22:51;;;;;;;11.55;10.65;;;0.40;99.90;;;;;;12612335;28;20048;-83
2023/11/29 19:28:53;;;;;;;11.30;10.35;;;0.40;99.90;;;;;;12591972;28;20629;-83
2023/11/29 19:34:55;;;;;;;12.50;11.68;;;0.40;99.90;;;;;;12615859;28;20052;-85
2023/11/29 19:40:57;;;;;;;12.27;11.48;;;0.30;99.90;;;;;;12595195;28;20060;-85
2023/11/29 19:47:00;;;;;;;11.95;11.25;;;0.30;99.90;;;;;;12587313;28;20051;-85
2023/11/29 19:53:15;;;;;;;12.10;11.32;;;0.30;99.90;;;;;;12600894;28;20485;-86
2023/11/29 19:59:17;;;;;;;13.40;12.50;;;0.30;99.90;;;;;;12610985;28;20048;-86
2023/11/29 20:05:19;;;;;;;13.20;12.20;;;0.30;99.90;;;;;;12598642;28;20056;-86
2023/11/29 20:11:21;;;;;;;12.77;11.88;;;0.20;99.90;;;;;;12496804;22;20046;-79
2023/11/29 20:17:23;;;;;;;13.23;12.23;;;0.20;99.90;;;;;;12423436;28;20403;-76
2023/11/29 20:23:25;;;;;;;11.50;10.80;;;0.30;99.90;;;;;;12485068;28;20042;-76
2023/11/29 20:29:28;;;;;;;12.02;11.23;;;0.20;99.90;;;;;;12424325;28;20396;-77
2023/11/29 20:35:30;;;;;;;13.60;12.60;;;0.30;99.90;;;;;;12421096;28;20069;-77
2023/11/29 20:41:47;;;;;;;12.25;11.45;;;0.20;99.90;;;;;;12410334;28;20107;-76
2023/11/29 20:47:49;;;;;;;14.13;13.15;;;0.30;99.90;;;;;;12524445;28;20064;-77
2023/11/29 20:53:52;;;;;;;14.38;13.38;;;0.00;99.90;;;;;;12495797;28;20061;-76
2023/11/29 20:59:54;;;;;;;12.85;11.95;;;-0.20;99.90;;;;;;12408703;28;20053;-76
2023/11/29 21:05:56;;;;;;;14.02;12.82;;;-0.30;99.90;;;;;;12492826;28;20057;-77
2023/11/29 21:11:58;;;;;;;11.15;10.25;;;-0.30;99.90;;;;;;12412817;28;20499;-77
2023/11/29 21:18:01;;;;;;;10.23;9.32;;;-0.40;99.90;;;;;;12508369;28;20051;-79
2023/11/29 21:24:04;;;;;;;10.32;9.52;;;-0.50;99.90;;;;;;12482870;28;20126;-77
2023/11/29 21:30:07;;;;;;;10.73;9.82;;;-0.50;99.90;;;;;;12422254;28;20047;-79
2023/11/29 21:36:09;;;;;;;11.55;10.45;;;-0.40;99.90;;;;;;12412943;28;20054;-76
2023/11/29 21:42:11;;;;;;;11.68;10.52;;;-0.20;99.90;;;;;;12486421;28;20050;-76
2023/11/29 21:48:13;;;;;;;13.65;12.35;;;-0.10;99.90;;;;;;12490554;28;20045;-77
2023/11/29 21:54:15;;;;;;;12.27;11.13;;;-0.20;99.90;;;;;;12476392;28;20058;-77
2023/11/29 22:00:19;;;;;;;13.43;12.07;;;-0.20;99.90;;;;;;12415720;28;20050;-77
2023/11/29 22:06:21;;;;;;;14.50;13.00;;;-0.20;99.90;;;;;;12491500;28;20688;-76
2023/11/29 22:12:23;;;;;;;13.60;12.30;;;-0.20;99.90;;;;;;12481250;28;20055;-76
2023/11/29 22:18:25;;;;;;;14.60;13.15;;;-0.10;99.90;;;;;;12440760;28;20047;-77
2023/11/29 22:24:28;;;;;;;13.75;12.30;;;-0.10;99.90;;;;;;12419809;28;20498;-76
2023/11/29 22:30:30;;;;;;;14.25;12.75;;;-0.10;99.90;;;;;;12478963;28;20049;-76
2023/11/29 22:36:32;;;;;;;16.02;13.82;;;-0.10;99.90;;;;;;12482577;28;20057;-76
2023/11/29 22:42:34;;;;;;;17.90;15.13;;;0.00;99.90;;;;;;12477098;28;20053;-76
2023/11/29 22:48:36;;;;;;;19.02;17.10;;;0.00;99.90;;;;;;12489042;28;20045;-76
2023/11/29 22:54:38;;;;;;;19.30;17.27;;;-0.10;99.90;;;;;;12481316;28;20058;-77
2023/11/29 23:00:40;;;;;;;18.98;16.98;;;-0.10;99.90;;;;;;12491290;28;20447;-76
2023/11/29 23:06:43;;;;;;;18.95;17.00;;;0.00;99.90;;;;;;12478678;28;20058;-77
2023/11/29 23:12:45;;;;;;;18.67;16.75;;;0.00;99.90;;;;;;12412977;28;20054;-76
2023/11/29 23:18:47;;;;;;;20.92;18.80;;;0.00;99.90;;;;;;12476847;28;20089;-77
2023/11/29 23:24:50;;;;;;;20.23;17.40;;;-0.10;99.90;;;;;;12487486;28;20077;-77
2023/11/29 23:30:52;;;;;;;19.65;17.58;;;-0.10;99.90;;;;;;12488000;28;20140;-77
2023/11/29 23:36:54;;;;;;;18.20;16.42;;;-0.20;99.90;;;;;;12483561;28;20057;-77
2023/11/29 23:42:55;;;;;;;18.48;16.40;;;-0.20;99.90;;;;;;12493288;28;20042;-76
2023/11/29 23:48:59;;;;;;;19.50;16.95;;;-0.20;99.90;;;;;;12415772;28;20095;-76
2023/11/29 23:55:01;;;;;;;21.23;16.92;;;-0.20;99.90;;;;;;12485906;28;20089;-76
